AirNav   Pilot Hours Calculator
 
 1337 users online  

1IL0 Barnstorm Field Airport
El Paso, Illinois, USA

GOING TO EL PASO?


FAA INFORMATION EFFECTIVE 12 SEPTEMBER 2019

Location

FAA Identifier: 1IL0
Lat/Long: 40-46-30.0000N 089-00-04.0000W
40-46.500000N 089-00.066667W
40.7750000,-89.0011111
(estimated)
Elevation: 731 ft. / 223 m (estimated)
Variation: 01W (1995)
From city: 3 miles N of EL PASO, IL
Time zone: UTC -5 (UTC -6 during Standard Time)
Zip code: 61738

Airport Operations

Airport use: Private use. Permission required prior to landing
Activation date: 03/1999
Control tower: no
ARTCC: CHICAGO CENTER
FSS: KANKAKEE FLIGHT SERVICE STATION
Attendance: IREG
Wind indicator: yes
Segmented circle: no

Airport Communications

WX AWOS-3PT at BMI (18 nm S): 135.35 (309-661-9478)
WX AWOS-3 at PNT (19 nm NE): 119.675 (815-844-0923)

Nearby radio navigation aids

VOR radial/distance  VOR name  Freq  Var
PNTr254/12.5PONTIAC VOR/DME109.6003E
BMIr347/17.9BLOOMINGTON VOR/DME108.2003E
BDFr131/35.2BRADFORD VORTAC114.7000E
PIAr077/36.4PEORIA VORTAC115.2004E
RBSr285/39.8ROBERTS VOR/DME116.8002E

 
NDB name  Hdg/Dist  Freq  Var  ID
EGROW339/14.133403WLH .-.. ....
ABRAHAM023/40.032900EAAA .- .- .-

Airport Services

Runway Information

Runway 9/27

Dimensions: 2650 x 70 ft. / 808 x 21 m
Surface: turf
Runway edge markings: RY 09 DSPLCD THLD MKD WITH WHITE TIRES.
RUNWAY 9  RUNWAY 27
Traffic pattern: leftleft
Displaced threshold: 450 ft.no
Obstructions: 30 ft. plinenone

Airport Ownership and Management from official FAA records

Ownership: Privately-owned
Owner: DAVID BURROUGHS
1262 COUNTY RD 2800 E
EL PASO, IL 61738
Phone (309) 261-0992
Manager: DAVID BURROUGHS
1262 COUNTY RD 2800 E
EL PASO, IL 61738
Phone (309) 261-0992

Airport Operational Statistics

Aircraft based on the field: 2
Single engine airplanes: 2
    

Additional Remarks

OWNER DESIRES ARPT NOT BE CHARTED.
FOR CD CTC CHICAGO ARTCC AT 630-906-8921.

Instrument Procedures

There are no published instrument procedures at 1IL0.

Some nearby airports with instrument procedures:

KBMI - Central Illinois Regional Airport at Bloomington-Normal (18 nm S)
KPNT - Pontiac Municipal Airport (19 nm NE)
C75 - Marshall County Airport (23 nm NW)
3MY - Mount Hawley Auxiliary Airport (28 nm W)
KPIA - General Downing - Peoria International Airport (32 nm W)
 
Loc | Ops | Rwys | IFR | FBO | Links
Com | Nav | Svcs | Stats | Notes
Area around 1IL0 (Barnstorm Field Airport)
 
Road maps at: MapQuest Bing Google
 
Aerial photo
No photo
 
Sectional chart

 
Airport distance calculator
Flying to Barnstorm Field Airport? Find the distance to fly.

From to 1IL0

Sunrise and sunset
Times for 20-Sep-2019
 Local
(UTC-5)
 Zulu
(UTC)
Morning civil twilight06:1511:15
Sunrise06:4311:43
Sunset18:5623:56
Evening civil twilight19:2400:24

Current date and time
Zulu (UTC)  20-Sep-2019 19:30:53
Local (UTC-5)  20-Sep-2019 14:30:53
 
METAR
KPNT 
19nm NE 
201915Z AUTO 00000KT 10SM SCT085 29/20 A3012 RMK AO2 T02860201
KBMI 
19nm S 
201856Z 12007KT 10SM CLR 30/20 A3013 RMK AO2 SLP193 T03000200
KC75 
23nm NW 
201910Z AUTO 15008KT 10SM CLR 30/20 A3008 RMK AO2 T02950198
KPIA 
32nm W 
201854Z 11006KT 10SM SCT100 30/19 A3009 RMK AO2 SLP183 T03000194
KVYS 
35nm N 
201915Z AUTO 17009KT 10SM CLR 29/19 A3010 RMK AO2 T02860192
TAF
KBMI 
19nm S 
201736Z 2018/2118 13007KT P6SM SCT050 FM210000 19007KT P6SM BKN200 FM210900 18009KT P6SM BKN080 FM211300 19014KT P6SM VCSH BKN050
NOTAMs
Click for the latest NOTAMs
NOTAMs are issued by the DoD/FAA and will open in a separate window not controlled by AirNav.

 

 
 

Would you like to see your business listed on this page?

 If your business provides an interesting product or service to pilots, flight crews, aircraft, or users of the Barnstorm Field Airport, you should consider listing it here.  To start the listing process, click on the button below
 
Add a business
 

Other Pages about Barnstorm Field Airport

Update a link
 
Copyright © AirNav, LLC. All rights reserved. Privacy Policy  Contact